Farmington, MO

9:34 PM CDT on July 22, 2014 (GMT -0500)
Farmington Regional (KFAM) Elev 945 ft | 37.76 °N, 90.43 °W | Change Station

Current weather conditions updated 19 minutes ago

Clear
Clear
77 °F
Feels Like 77 °F
N
0
Wind Variable Wind from North

Tomorrow is forecast to be Cooler than today. Scattered thunderstorms.

Today
High -- | Low -- °F
--% Chance of Precip.
Yesterday
High -- | Low -- °F
Precip. -- in
5:57 AM 8:18 PM
Waning Crescent, 13% visible
Pressure 30.09 in
Visibility 10.0 miles
Clouds Clear
Dew Point 68 °F
Humidity 74%
Rainfall 0.00 in
Snow Depth Not available.
UV 0 out of 12
Pollen 6.10 out of 12
Air Quality Not available.
Flu Activity Not available.
METAR KFAM 230215Z AUTO 00000KT 10SM CLR 25/20 A3009 RMK AO1

More Conditions Fewer Conditions

Pressure 30.09 in
Visibility 10.0 miles
Clouds Clear
Dew Point 68 °F
Humidity 74%
Rainfall 0.00 in
Snow Depth Not available.
UV 0 out of 12
Pollen 6.10 out of 12
Air Quality Not available.
Flu Activity Not available.
METAR KFAM 230215Z AUTO 00000KT 10SM CLR 25/20 A3009 RMK AO1

More Conditions Fewer Conditions

10-Day Weather Forecast

Almanac

Astronomy

Jul. 22, 2014 Rise Set
Actual Time 5:57 AM CDT 8:18 PM CDT
Civil Twilight 5:27 AM CDT 8:48 PM CDT
Nautical Twilight 4:50 AM CDT 9:25 PM CDT
Astronomical Twilight 4:09 AM CDT 10:05 PM CDT
Moon 2:29 AM CDT (7/22) 4:57 PM CDT (7/22)
Length of Visible Light 15h 21m
Length of Day
14h 21m
Tomorrow will be 1m 32s shorter.
Waning Crescent, 13% of the Moon is Illuminated
Today
Waning Crescent
Jul 26
New
Aug 3
First Quarter
Aug 10
Full
Aug 17
Last Quarter

Today's Extremes

State Highs State Lows

Community

WunderPhotos

Upload Photos

1,736,460 photos uploaded!

Nearby

Snow Depth

Station Depth Elevation
No new snow has been reported.

Earthquake Activity

City Distance Mag. Time & Date
No recent earthquake activity has been reported nearby.
Minimum magnitude displayed is 2.5.

Coastal Water Temperatures

Place Temperature
No Stations Reporting

Nearby Weather Stations

Station Location Temp. Heat Index Dew Point Humidity Wind Precip. Elev Updated Type
RAWS FARMINGTON MO, French Village, MO 81 °F 84 °F 69 °F 68% South  at  4 mph 0.00 in / hr 945 ft 9:00 PM CDT MADIS
Park Hills, Park Hills, MO 86.5 °F 95 °F 74 °F 67% North  at  0.0 mph 0.00 in / hr 823 ft 7:26 PM CDT Rapid Fire
TurtleCreekFarm, Bismarck, MO 72.8 °F 70 °F 70 °F 90% South  at  0.0 mph 0.00 in / hr 1040 ft 9:31 PM CDT Normal
Bismarck, MO 77.6 °F 80 °F 70 °F 78% SSE  at  0.0 mph 0.00 in / hr 1000 ft 9:31 PM CDT Normal
Ste Genevieve county, Festus, MO 76.2 °F - - - North  at  - 0.00 in / hr 705 ft 9:31 PM CDT Normal
K0GDI, Blackwell, MO 79.2 °F 83 °F 74 °F 84% SSE  at  0.0 mph 0.00 in / hr 594 ft 9:34 PM CDT Rapid Fire
MesoWest GLOVRS , Glover, MO 78 °F 76 °F - - North  at  - 0.00 in / hr 836 ft 8:30 PM CDT MADIS

Show More Stations Show Fewer Stations